Time;durP1;ratioP1;P1;durP2;ratioP2;P2;SDS_P1;SDS_P2;PMS_P1;PMS_P2;Temp;Humidity;BMP_temperature;BMP_pressure;BME280_temperature;BME280_humidity;BME280_pressure;Samples;Min_cycle;Max_cycle;Signal;HPM_P1;HPM_P2
2022/09/09 00:01:42;;;;;;;15.93;13.40;;;;;;;;;;5045117;28;20907;-81
2022/09/09 00:04:14;;;;;;;15.43;13.82;;;;;;;;;;5046964;28;20431;-82
2022/09/09 00:06:45;;;;;;;17.25;14.50;;;;;;;;;;5045178;28;20425;-80
2022/09/09 00:09:12;;;;;;;21.20;15.52;;;;;;;;;;5043465;28;20436;-81
2022/09/09 00:11:42;;;;;;;17.85;14.60;;;;;;;;;;5045274;28;20435;-81
2022/09/09 00:14:13;;;;;;;19.55;15.70;;;;;;;;;;5047013;28;20423;-82
2022/09/09 00:16:42;;;;;;;19.58;16.65;;;;;;;;;;5041063;28;20431;-79
2022/09/09 00:19:11;;;;;;;24.60;17.23;;;;;;;;;;5042525;28;20441;-82
2022/09/09 00:21:39;;;;;;;24.48;18.73;;;;;;;;;;5042226;28;20431;-80
2022/09/09 00:24:11;;;;;;;26.58;19.23;;;;;;;;;;5042238;28;20848;-81
2022/09/09 00:26:40;;;;;;;24.13;19.27;;;;;;;;;;5042103;28;20418;-81
2022/09/09 00:29:10;;;;;;;24.38;19.20;;;;;;;;;;5044194;28;20452;-81
2022/09/09 00:31:38;;;;;;;23.15;18.70;;;;;;;;;;5042503;28;20437;-80
2022/09/09 00:34:10;;;;;;;30.70;21.20;;;;;;;;;;5042008;28;20445;-80
2022/09/09 00:36:36;;;;;;;31.08;22.65;;;;;;;;;;5041670;28;20944;-81
2022/09/09 00:39:04;;;;;;;31.23;22.35;;;;;;;;;;5042919;28;20491;-81
2022/09/09 00:41:39;;;;;;;30.83;22.17;;;;;;;;;;5044412;28;21079;-79
2022/09/09 00:44:17;;;;;;;27.27;21.40;;;;;;;;;;5043774;28;20438;-80
2022/09/09 00:46:55;;;;;;;28.20;20.80;;;;;;;;;;5042055;28;20427;-83
2022/09/09 00:49:25;;;;;;;27.77;21.90;;;;;;;;;;5040681;28;20458;-80
2022/09/09 00:51:57;;;;;;;28.50;21.87;;;;;;;;;;5043495;28;20430;-81
2022/09/09 00:54:36;;;;;;;29.60;22.48;;;;;;;;;;5042073;28;20437;-81
2022/09/09 00:57:07;;;;;;;29.58;23.02;;;;;;;;;;5041991;28;20429;-81
2022/09/09 00:59:39;;;;;;;28.10;20.92;;;;;;;;;;5042947;28;20445;-81
2022/09/09 01:02:14;;;;;;;28.80;22.40;;;;;;;;;;5043883;28;20438;-83
2022/09/09 01:04:42;;;;;;;32.63;23.27;;;;;;;;;;5043417;28;20426;-82
2022/09/09 01:07:12;;;;;;;29.60;23.65;;;;;;;;;;5045900;28;20455;-82
2022/09/09 01:09:43;;;;;;;30.17;23.13;;;;;;;;;;5043385;28;20459;-82
2022/09/09 01:12:12;;;;;;;33.38;24.08;;;;;;;;;;5044180;28;20504;-81
2022/09/09 01:14:42;;;;;;;31.85;23.77;;;;;;;;;;5041404;28;20436;-80
2022/09/09 01:17:14;;;;;;;35.60;23.30;;;;;;;;;;5037932;28;20427;-80
2022/09/09 01:19:44;;;;;;;33.03;24.60;;;;;;;;;;5041304;28;20425;-83
2022/09/09 01:22:15;;;;;;;28.17;22.20;;;;;;;;;;5041061;28;20517;-81
2022/09/09 01:24:44;;;;;;;32.63;24.60;;;;;;;;;;5041244;28;20421;-82
2022/09/09 01:27:13;;;;;;;30.40;24.02;;;;;;;;;;5041367;28;20429;-80
2022/09/09 01:29:40;;;;;;;33.22;24.85;;;;;;;;;;5043075;28;20498;-80
2022/09/09 01:32:21;;;;;;;31.02;24.95;;;;;;;;;;5042493;28;20423;-81
2022/09/09 01:34:48;;;;;;;30.17;24.95;;;;;;;;;;5042008;28;20447;-82
2022/09/09 01:37:14;;;;;;;34.13;24.60;;;;;;;;;;5042997;28;20508;-81
2022/09/09 01:39:42;;;;;;;34.07;25.57;;;;;;;;;;5042614;28;20444;-81
2022/09/09 01:42:10;;;;;;;32.20;26.00;;;;;;;;;;5042819;28;20427;-81
2022/09/09 01:44:39;;;;;;;32.60;24.17;;;;;;;;;;5042122;28;20469;-81
2022/09/09 01:47:05;;;;;;;33.38;24.48;;;;;;;;;;5040514;28;20433;-82
2022/09/09 01:49:32;;;;;;;34.35;24.85;;;;;;;;;;5042250;28;20452;-82
2022/09/09 01:51:59;;;;;;;31.58;24.65;;;;;;;;;;5042671;28;20426;-81
2022/09/09 01:54:28;;;;;;;35.87;26.70;;;;;;;;;;5041649;28;20433;-82
2022/09/09 01:57:02;;;;;;;34.93;25.80;;;;;;;;;;5043372;28;20436;-82
2022/09/09 01:59:37;;;;;;;34.10;25.42;;;;;;;;;;5043974;28;20437;-80
2022/09/09 02:02:14;;;;;;;29.15;24.63;;;;;;;;;;5044816;28;20808;-83
2022/09/09 02:04:42;;;;;;;33.30;24.63;;;;;;;;;;5042388;28;20516;-83
2022/09/09 02:07:15;;;;;;;30.30;23.25;;;;;;;;;;5043842;28;20433;-81
2022/09/09 02:09:42;;;;;;;33.05;23.42;;;;;;;;;;5044536;28;20426;-80
2022/09/09 02:12:12;;;;;;;33.27;24.23;;;;;;;;;;5041239;28;20788;-81
2022/09/09 02:14:42;;;;;;;32.08;24.65;;;;;;;;;;5042804;28;20442;-80
2022/09/09 02:17:10;;;;;;;36.88;25.77;;;;;;;;;;5037878;28;20426;-80
2022/09/09 02:19:40;;;;;;;36.85;25.10;;;;;;;;;;5040998;28;20433;-81
2022/09/09 02:22:06;;;;;;;28.90;22.98;;;;;;;;;;5040138;28;20431;-81
2022/09/09 02:24:35;;;;;;;30.13;22.98;;;;;;;;;;5040232;28;20431;-82
2022/09/09 02:27:04;;;;;;;31.25;23.98;;;;;;;;;;5041096;28;21103;-80
2022/09/09 02:29:32;;;;;;;30.80;24.02;;;;;;;;;;5041381;28;20562;-81
2022/09/09 02:32:00;;;;;;;35.45;23.92;;;;;;;;;;5041017;28;20932;-81
2022/09/09 02:34:27;;;;;;;30.17;23.60;;;;;;;;;;5039002;28;20443;-81
2022/09/09 02:36:56;;;;;;;32.63;24.07;;;;;;;;;;5040679;28;20438;-82
2022/09/09 02:39:22;;;;;;;31.60;23.60;;;;;;;;;;5041870;28;20421;-82
2022/09/09 02:41:48;;;;;;;31.30;22.20;;;;;;;;;;5044130;28;20500;-81
2022/09/09 02:44:16;;;;;;;34.15;24.17;;;;;;;;;;5041305;28;20434;-82
2022/09/09 02:46:56;;;;;;;31.08;23.23;;;;;;;;;;5040290;28;20431;-82
2022/09/09 02:49:26;;;;;;;25.73;21.23;;;;;;;;;;5041347;28;20441;-81
2022/09/09 02:51:54;;;;;;;32.13;22.87;;;;;;;;;;5041063;28;20433;-82
2022/09/09 02:54:27;;;;;;;27.33;21.92;;;;;;;;;;5041384;28;20846;-82
2022/09/09 02:56:56;;;;;;;30.52;23.13;;;;;;;;;;5043572;28;20949;-82
2022/09/09 02:59:23;;;;;;;30.17;24.08;;;;;;;;;;5044020;28;20853;-82
2022/09/09 03:01:50;;;;;;;28.85;23.05;;;;;;;;;;5041516;28;20433;-82
2022/09/09 03:04:16;;;;;;;29.20;23.60;;;;;;;;;;5042055;28;20434;-81
2022/09/09 03:06:43;;;;;;;33.40;23.85;;;;;;;;;;5039024;28;20438;-81
2022/09/09 03:09:10;;;;;;;30.67;23.38;;;;;;;;;;5041328;28;20427;-81
2022/09/09 03:11:38;;;;;;;28.10;22.33;;;;;;;;;;5041485;28;20449;-81
2022/09/09 03:14:04;;;;;;;33.13;23.27;;;;;;;;;;5040861;28;20512;-81
2022/09/09 03:16:32;;;;;;;30.80;23.10;;;;;;;;;;5038586;28;21002;-82
2022/09/09 03:18:59;;;;;;;28.33;22.23;;;;;;;;;;5039919;28;20449;-81
2022/09/09 03:21:25;;;;;;;33.35;23.13;;;;;;;;;;5039937;28;20419;-81
2022/09/09 03:23:52;;;;;;;27.10;22.27;;;;;;;;;;5039436;28;20435;-81
2022/09/09 03:26:18;;;;;;;29.52;22.48;;;;;;;;;;5038469;28;20431;-81
2022/09/09 03:28:46;;;;;;;30.58;22.40;;;;;;;;;;5044875;28;20490;-80
2022/09/09 03:31:13;;;;;;;31.73;21.97;;;;;;;;;;5045292;28;20433;-82
2022/09/09 03:33:40;;;;;;;32.05;22.80;;;;;;;;;;5044102;28;20437;-82
2022/09/09 03:36:10;;;;;;;28.17;22.50;;;;;;;;;;5044701;28;20444;-82
2022/09/09 03:38:36;;;;;;;28.55;21.13;;;;;;;;;;5045359;28;20463;-80
2022/09/09 03:41:03;;;;;;;28.67;21.75;;;;;;;;;;5045710;28;20428;-81
2022/09/09 03:43:30;;;;;;;32.72;22.77;;;;;;;;;;5045384;28;20421;-81
2022/09/09 03:45:57;;;;;;;28.63;22.65;;;;;;;;;;5045172;28;20399;-80
2022/09/09 03:48:24;;;;;;;29.23;21.08;;;;;;;;;;5043198;28;20445;-80
2022/09/09 03:50:52;;;;;;;29.02;22.30;;;;;;;;;;5044286;28;20415;-82
2022/09/09 03:53:19;;;;;;;29.85;22.23;;;;;;;;;;5044692;28;20444;-81
2022/09/09 03:55:46;;;;;;;31.10;22.45;;;;;;;;;;5043712;28;20414;-82
2022/09/09 03:58:13;;;;;;;30.60;22.57;;;;;;;;;;5046086;28;20462;-81
2022/09/09 04:00:42;;;;;;;33.72;22.80;;;;;;;;;;5044813;28;20601;-81
2022/09/09 04:03:09;;;;;;;26.75;21.23;;;;;;;;;;5042655;28;20522;-80
2022/09/09 04:05:39;;;;;;;29.45;21.67;;;;;;;;;;5041537;28;20442;-81
2022/09/09 04:08:05;;;;;;;26.33;20.75;;;;;;;;;;5041161;28;20496;-81
2022/09/09 04:10:32;;;;;;;27.50;22.20;;;;;;;;;;5043803;28;20448;-81
2022/09/09 04:12:59;;;;;;;23.98;20.40;;;;;;;;;;5044724;28;20438;-81
2022/09/09 04:15:25;;;;;;;28.10;21.08;;;;;;;;;;5043271;28;20429;-81
2022/09/09 04:17:52;;;;;;;26.17;20.83;;;;;;;;;;5042826;28;20418;-81
2022/09/09 04:20:19;;;;;;;28.35;21.33;;;;;;;;;;5042368;28;20439;-80
2022/09/09 04:22:46;;;;;;;29.55;20.20;;;;;;;;;;5044268;28;20440;-81
2022/09/09 04:25:12;;;;;;;26.35;19.13;;;;;;;;;;5043100;28;20454;-80
2022/09/09 04:27:39;;;;;;;24.98;18.35;;;;;;;;;;5042616;28;20429;-82
2022/09/09 04:30:06;;;;;;;25.10;18.60;;;;;;;;;;5044438;28;20930;-82
2022/09/09 04:32:33;;;;;;;20.75;18.52;;;;;;;;;;5042332;28;20437;-80
2022/09/09 04:34:59;;;;;;;23.75;19.10;;;;;;;;;;5043692;28;20437;-80
2022/09/09 04:37:28;;;;;;;24.83;18.50;;;;;;;;;;5043832;28;20502;-81
2022/09/09 04:39:54;;;;;;;25.50;19.33;;;;;;;;;;5043557;28;20515;-80
2022/09/09 04:42:21;;;;;;;23.77;17.80;;;;;;;;;;5042219;28;20547;-81
2022/09/09 04:44:47;;;;;;;26.47;19.80;;;;;;;;;;5044325;28;22109;-81
2022/09/09 04:47:14;;;;;;;25.98;18.33;;;;;;;;;;5042160;28;20951;-81
2022/09/09 04:49:41;;;;;;;23.65;18.88;;;;;;;;;;5043926;28;20439;-81
2022/09/09 04:52:07;;;;;;;26.90;17.60;;;;;;;;;;5044938;28;20418;-82
2022/09/09 04:54:35;;;;;;;25.15;17.55;;;;;;;;;;5044476;28;20439;-82
2022/09/09 04:57:01;;;;;;;22.53;17.50;;;;;;;;;;5050423;28;20447;-81
2022/09/09 04:59:28;;;;;;;23.23;17.05;;;;;;;;;;5044489;28;20434;-81
2022/09/09 05:01:55;;;;;;;29.80;17.70;;;;;;;;;;5041187;28;20434;-81
2022/09/09 05:04:21;;;;;;;23.27;17.10;;;;;;;;;;5039686;28;20429;-80
2022/09/09 05:06:48;;;;;;;23.55;17.73;;;;;;;;;;5039928;28;20433;-81
2022/09/09 05:09:15;;;;;;;21.63;16.63;;;;;;;;;;5042921;28;20441;-80
2022/09/09 05:11:43;;;;;;;21.70;16.17;;;;;;;;;;5038612;28;20433;-80
2022/09/09 05:14:11;;;;;;;19.58;16.08;;;;;;;;;;5043060;28;20431;-80
2022/09/09 05:16:37;;;;;;;18.90;15.27;;;;;;;;;;5040881;28;20433;-81
2022/09/09 05:19:04;;;;;;;21.05;16.92;;;;;;;;;;5042655;28;20427;-81
2022/09/09 05:21:31;;;;;;;19.70;15.73;;;;;;;;;;5041703;28;20462;-80
2022/09/09 05:23:57;;;;;;;19.13;15.68;;;;;;;;;;5043532;28;20436;-81
2022/09/09 05:26:24;;;;;;;23.38;15.60;;;;;;;;;;5041376;28;20926;-81
2022/09/09 05:28:52;;;;;;;16.95;14.23;;;;;;;;;;5043396;28;20579;-82
2022/09/09 05:31:19;;;;;;;20.63;15.52;;;;;;;;;;5039641;28;20424;-81
2022/09/09 05:33:46;;;;;;;19.35;15.18;;;;;;;;;;5044016;28;20879;-81
2022/09/09 05:36:14;;;;;;;19.00;16.50;;;;;;;;;;5043578;28;20429;-81
2022/09/09 05:38:41;;;;;;;25.98;15.85;;;;;;;;;;5043333;28;20972;-81
2022/09/09 05:41:08;;;;;;;22.90;16.42;;;;;;;;;;5042742;28;20421;-82
2022/09/09 05:43:34;;;;;;;28.25;16.92;;;;;;;;;;5043636;28;20573;-81
2022/09/09 05:46:04;;;;;;;26.08;17.35;;;;;;;;;;5042706;28;20411;-81
2022/09/09 05:48:31;;;;;;;22.85;16.83;;;;;;;;;;5044246;28;20435;-81
2022/09/09 05:50:58;;;;;;;22.90;17.73;;;;;;;;;;5043372;28;20420;-81
2022/09/09 05:53:25;;;;;;;20.90;17.20;;;;;;;;;;5045500;28;20524;-80
2022/09/09 05:55:52;;;;;;;23.73;17.60;;;;;;;;;;5040668;28;21003;-84
2022/09/09 05:58:18;;;;;;;22.05;16.73;;;;;;;;;;5040137;28;20439;-80
2022/09/09 06:00:45;;;;;;;23.40;16.70;;;;;;;;;;5038698;28;20922;-81
2022/09/09 06:03:13;;;;;;;20.33;16.40;;;;;;;;;;5038382;28;20826;-80
2022/09/09 06:05:40;;;;;;;20.70;15.85;;;;;;;;;;5040419;28;20782;-82
2022/09/09 06:08:07;;;;;;;24.05;15.00;;;;;;;;;;5039840;28;20437;-81
2022/09/09 06:10:33;;;;;;;22.25;15.23;;;;;;;;;;5040211;28;20940;-81
2022/09/09 06:13:00;;;;;;;17.60;14.60;;;;;;;;;;5041362;28;20876;-80
2022/09/09 06:15:26;;;;;;;22.25;14.88;;;;;;;;;;5043153;28;20439;-81
2022/09/09 06:17:55;;;;;;;23.08;15.68;;;;;;;;;;5041430;28;20431;-82
2022/09/09 06:20:22;;;;;;;20.00;15.45;;;;;;;;;;5041168;28;20810;-79
2022/09/09 06:22:49;;;;;;;17.80;14.73;;;;;;;;;;5038951;28;20437;-80
2022/09/09 06:25:15;;;;;;;20.53;16.90;;;;;;;;;;5042894;28;20429;-81
2022/09/09 06:27:42;;;;;;;19.95;14.63;;;;;;;;;;5041288;28;20423;-81
2022/09/09 06:30:09;;;;;;;19.77;15.60;;;;;;;;;;5041131;28;21078;-80
2022/09/09 06:32:37;;;;;;;22.45;15.70;;;;;;;;;;5044269;28;20433;-80
2022/09/09 06:35:04;;;;;;;19.30;14.70;;;;;;;;;;5044544;28;20924;-82
2022/09/09 06:37:32;;;;;;;16.20;13.57;;;;;;;;;;5041515;28;20433;-82
2022/09/09 06:39:58;;;;;;;19.98;14.20;;;;;;;;;;5044063;28;21052;-80
2022/09/09 06:42:24;;;;;;;20.10;14.95;;;;;;;;;;5043184;28;20429;-81
2022/09/09 06:44:52;;;;;;;19.08;14.27;;;;;;;;;;5044393;28;20508;-83
2022/09/09 06:47:18;;;;;;;21.30;14.50;;;;;;;;;;5043127;28;20906;-81
2022/09/09 06:49:44;;;;;;;14.70;12.25;;;;;;;;;;5043999;28;20429;-80
2022/09/09 06:52:11;;;;;;;17.55;12.50;;;;;;;;;;5037224;28;20935;-82
2022/09/09 06:54:39;;;;;;;18.33;13.25;;;;;;;;;;5040010;28;20452;-80
2022/09/09 06:57:06;;;;;;;12.57;11.10;;;;;;;;;;5039301;28;20466;-80
2022/09/09 06:59:33;;;;;;;14.38;11.60;;;;;;;;;;5039953;28;20460;-80
2022/09/09 07:01:59;;;;;;;12.10;10.80;;;;;;;;;;5041439;28;20423;-80
2022/09/09 07:04:26;;;;;;;14.18;11.48;;;;;;;;;;5044856;28;20877;-80
2022/09/09 07:06:52;;;;;;;13.05;10.88;;;;;;;;;;5043562;28;20431;-80
2022/09/09 07:09:18;;;;;;;13.63;11.60;;;;;;;;;;5045871;28;20439;-80
2022/09/09 07:11:47;;;;;;;11.18;9.65;;;;;;;;;;5041996;28;20434;-81
2022/09/09 07:14:14;;;;;;;18.45;10.23;;;;;;;;;;5044234;28;20436;-80
2022/09/09 07:16:40;;;;;;;10.65;9.15;;;;;;;;;;5042501;28;20433;-80
2022/09/09 07:19:07;;;;;;;12.75;9.93;;;;;;;;;;5043986;28;20438;-80
2022/09/09 07:21:34;;;;;;;10.82;9.65;;;;;;;;;;5044096;28;20475;-80
2022/09/09 07:24:01;;;;;;;10.77;9.35;;;;;;;;;;5048018;28;20425;-80
2022/09/09 07:26:28;;;;;;;10.75;8.00;;;;;;;;;;5044454;28;20419;-79
2022/09/09 07:28:57;;;;;;;12.05;8.60;;;;;;;;;;5045399;28;20445;-81
2022/09/09 07:31:25;;;;;;;8.70;6.90;;;;;;;;;;5044579;28;20931;-80
2022/09/09 07:33:51;;;;;;;8.10;7.30;;;;;;;;;;5043909;28;20437;-80
2022/09/09 07:36:20;;;;;;;8.97;8.07;;;;;;;;;;5044636;28;20429;-80
2022/09/09 07:38:47;;;;;;;8.55;6.88;;;;;;;;;;5047220;28;20428;-81
2022/09/09 07:41:15;;;;;;;7.50;6.03;;;;;;;;;;5047062;28;20422;-81
2022/09/09 07:43:41;;;;;;;7.20;6.25;;;;;;;;;;5047960;28;20527;-81
2022/09/09 07:46:10;;;;;;;7.00;5.90;;;;;;;;;;5044135;28;20431;-81
2022/09/09 07:48:36;;;;;;;8.73;6.22;;;;;;;;;;5043316;28;20432;-81
2022/09/09 07:51:07;;;;;;;8.32;5.85;;;;;;;;;;5043542;28;20802;-79
2022/09/09 07:53:34;;;;;;;7.00;5.30;;;;;;;;;;5043905;28;20436;-82
2022/09/09 07:56:03;;;;;;;6.47;5.20;;;;;;;;;;5043623;28;20481;-79
2022/09/09 07:58:29;;;;;;;6.25;4.35;;;;;;;;;;5043724;28;20460;-82
2022/09/09 08:00:57;;;;;;;5.20;4.20;;;;;;;;;;5039586;28;20435;-80
2022/09/09 08:03:25;;;;;;;6.03;4.80;;;;;;;;;;5044582;28;20429;-80
2022/09/09 08:05:51;;;;;;;7.45;4.70;;;;;;;;;;5043262;28;20418;-80
2022/09/09 08:08:18;;;;;;;6.00;4.40;;;;;;;;;;5044065;28;20434;-81
2022/09/09 08:10:44;;;;;;;6.53;5.20;;;;;;;;;;5041418;28;20425;-81
2022/09/09 08:13:13;;;;;;;8.18;5.95;;;;;;;;;;5043134;28;20920;-81
2022/09/09 08:15:40;;;;;;;8.18;6.40;;;;;;;;;;5045963;28;20439;-81
2022/09/09 08:18:07;;;;;;;8.38;6.70;;;;;;;;;;5042799;28;20505;-80
2022/09/09 08:20:36;;;;;;;11.40;6.80;;;;;;;;;;5044246;28;20495;-80
2022/09/09 08:23:02;;;;;;;11.75;7.50;;;;;;;;;;5043827;28;20463;-81
2022/09/09 08:25:28;;;;;;;8.40;6.10;;;;;;;;;;5043695;28;20438;-82
2022/09/09 08:27:55;;;;;;;8.27;7.00;;;;;;;;;;5043775;28;20489;-81
2022/09/09 08:30:22;;;;;;;8.75;6.90;;;;;;;;;;5043050;28;20436;-82
2022/09/09 08:32:50;;;;;;;8.10;6.80;;;;;;;;;;5043644;28;21333;-82
2022/09/09 08:35:17;;;;;;;11.02;7.03;;;;;;;;;;5045220;28;20437;-81
2022/09/09 08:37:45;;;;;;;12.02;7.38;;;;;;;;;;5044183;28;20425;-82
2022/09/09 08:40:18;;;;;;;9.75;6.85;;;;;;;;;;5043752;28;20439;-81
2022/09/09 08:42:47;;;;;;;10.60;7.15;;;;;;;;;;5043136;28;20518;-79
2022/09/09 08:45:20;;;;;;;8.55;7.43;;;;;;;;;;5042028;28;20433;-80
2022/09/09 08:47:52;;;;;;;11.80;8.00;;;;;;;;;;5042160;28;20471;-80
2022/09/09 08:50:21;;;;;;;9.40;7.97;;;;;;;;;;5042695;28;20810;-80
2022/09/09 08:52:52;;;;;;;9.20;8.10;;;;;;;;;;5043250;28;20425;-84
2022/09/09 08:55:23;;;;;;;8.25;7.50;;;;;;;;;;5041576;28;20440;-80
2022/09/09 08:57:51;;;;;;;7.93;7.10;;;;;;;;;;5043020;28;20417;-81
2022/09/09 09:00:18;;;;;;;9.10;8.30;;;;;;;;;;5044621;28;20469;-81
2022/09/09 09:02:50;;;;;;;10.98;8.50;;;;;;;;;;5043311;28;20426;-81
2022/09/09 09:05:23;;;;;;;8.47;7.63;;;;;;;;;;5041734;28;20838;-81
2022/09/09 09:07:55;;;;;;;9.70;8.45;;;;;;;;;;5041878;28;20422;-82
2022/09/09 09:10:30;;;;;;;10.00;8.60;;;;;;;;;;5043396;28;20429;-82
2022/09/09 09:12:57;;;;;;;11.30;10.30;;;;;;;;;;5044572;28;20454;-81
2022/09/09 09:15:25;;;;;;;10.30;9.50;;;;;;;;;;5043481;28;20433;-81
2022/09/09 09:17:51;;;;;;;11.30;10.30;;;;;;;;;;5043075;28;20818;-81
2022/09/09 09:20:21;;;;;;;11.20;10.20;;;;;;;;;;5042697;28;20442;-82
2022/09/09 09:22:50;;;;;;;11.45;10.35;;;;;;;;;;5043903;28;20430;-81
2022/09/09 09:25:19;;;;;;;12.20;11.20;;;;;;;;;;5042977;28;20442;-83
2022/09/09 09:27:49;;;;;;;12.90;11.60;;;;;;;;;;5041823;28;20435;-81
2022/09/09 09:30:17;;;;;;;11.00;9.90;;;;;;;;;;5041119;28;20442;-82
2022/09/09 09:32:46;;;;;;;12.60;9.93;;;;;;;;;;5042279;28;20424;-82
2022/09/09 09:35:13;;;;;;;10.13;9.20;;;;;;;;;;5043546;28;20438;-81
2022/09/09 09:37:41;;;;;;;11.10;9.98;;;;;;;;;;5041758;28;20955;-81
2022/09/09 09:40:11;;;;;;;9.95;9.00;;;;;;;;;;5043293;28;20908;-81
2022/09/09 09:42:48;;;;;;;9.40;8.25;;;;;;;;;;5041614;28;20422;-80
2022/09/09 09:45:18;;;;;;;11.00;8.60;;;;;;;;;;5042453;28;20427;-80
2022/09/09 09:47:44;;;;;;;7.90;7.30;;;;;;;;;;5041268;28;20461;-80
2022/09/09 09:50:17;;;;;;;8.65;7.60;;;;;;;;;;5043433;28;20431;-81
2022/09/09 09:52:44;;;;;;;6.22;5.63;;;;;;;;;;5039675;28;20957;-80
2022/09/09 09:55:14;;;;;;;7.18;5.80;;;;;;;;;;5040810;28;20441;-81
2022/09/09 09:57:42;;;;;;;10.10;5.60;;;;;;;;;;5041493;28;20430;-83
2022/09/09 10:00:14;;;;;;;6.53;5.03;;;;;;;;;;5042162;28;20440;-82
2022/09/09 10:02:43;;;;;;;6.00;5.00;;;;;;;;;;5041787;28;20865;-81
2022/09/09 10:05:14;;;;;;;6.67;4.90;;;;;;;;;;5044537;28;20917;-82
2022/09/09 10:07:43;;;;;;;5.97;3.83;;;;;;;;;;5039586;28;20449;-82
2022/09/09 10:10:14;;;;;;;6.43;4.18;;;;;;;;;;5040631;28;20431;-83
2022/09/09 10:12:46;;;;;;;5.82;3.97;;;;;;;;;;5041910;28;20555;-82
2022/09/09 10:15:25;;;;;;;5.73;3.90;;;;;;;;;;5041947;28;20461;-82
2022/09/09 10:17:55;;;;;;;5.93;4.07;;;;;;;;;;5043401;28;20504;-82
2022/09/09 10:20:27;;;;;;;6.95;4.10;;;;;;;;;;5039879;28;20427;-85
2022/09/09 10:23:01;;;;;;;8.30;4.38;;;;;;;;;;5044576;28;20840;-82
2022/09/09 10:25:39;;;;;;;6.63;4.97;;;;;;;;;;5041898;28;20434;-83
2022/09/09 10:28:17;;;;;;;6.80;5.20;;;;;;;;;;5041636;28;20434;-82
2022/09/09 10:30:49;;;;;;;6.65;5.10;;;;;;;;;;5041722;28;20937;-82
2022/09/09 10:33:20;;;;;;;7.68;4.93;;;;;;;;;;5041761;28;20433;-81
2022/09/09 10:35:51;;;;;;;7.45;5.07;;;;;;;;;;5041108;28;20423;-82
2022/09/09 10:38:18;;;;;;;7.32;5.28;;;;;;;;;;5041142;28;20434;-81
2022/09/09 10:40:51;;;;;;;7.82;4.85;;;;;;;;;;5036364;28;20509;-82
2022/09/09 10:43:30;;;;;;;6.00;5.18;;;;;;;;;;5041233;28;20921;-82
2022/09/09 10:46:02;;;;;;;8.68;5.93;;;;;;;;;;5038679;28;20422;-82
2022/09/09 10:48:32;;;;;;;5.25;4.80;;;;;;;;;;5039460;28;20970;-82
2022/09/09 10:51:04;;;;;;;6.90;5.50;;;;;;;;;;5040191;28;20438;-82
2022/09/09 10:53:38;;;;;;;6.72;5.40;;;;;;;;;;5042709;28;20914;-83
2022/09/09 10:56:07;;;;;;;8.13;5.32;;;;;;;;;;5040411;28;20502;-82
2022/09/09 10:58:38;;;;;;;9.48;5.85;;;;;;;;;;5042037;28;20958;-80
2022/09/09 11:01:09;;;;;;;8.93;6.38;;;;;;;;;;5041168;28;20457;-82
2022/09/09 11:03:39;;;;;;;6.82;6.10;;;;;;;;;;5042427;28;20437;-80
2022/09/09 11:06:06;;;;;;;6.53;5.47;;;;;;;;;;5041006;28;20419;-81
2022/09/09 11:08:35;;;;;;;7.18;6.50;;;;;;;;;;5042772;28;20423;-82
2022/09/09 11:11:03;;;;;;;9.05;7.03;;;;;;;;;;5040214;28;20828;-80
2022/09/09 11:13:33;;;;;;;7.22;6.50;;;;;;;;;;5043233;28;20454;-81
2022/09/09 11:16:05;;;;;;;9.27;6.50;;;;;;;;;;5043903;28;20440;-81
2022/09/09 11:18:35;;;;;;;7.90;6.20;;;;;;;;;;5042903;28;20943;-82
2022/09/09 11:21:03;;;;;;;6.38;5.72;;;;;;;;;;5043205;28;20827;-81
2022/09/09 11:23:34;;;;;;;6.20;5.70;;;;;;;;;;5044009;28;20429;-82
2022/09/09 11:26:03;;;;;;;7.97;6.40;;;;;;;;;;5043808;28;20410;-82
2022/09/09 11:28:37;;;;;;;7.03;6.30;;;;;;;;;;5043839;28;20445;-82
2022/09/09 11:31:12;;;;;;;8.35;7.53;;;;;;;;;;5040370;28;20425;-82
2022/09/09 11:33:57;;;;;;;8.13;7.25;;;;;;;;;;5041718;28;20435;-82
2022/09/09 11:36:37;;;;;;;9.00;7.95;;;;;;;;;;5038835;28;20952;-81
2022/09/09 11:39:11;;;;;;;9.95;7.70;;;;;;;;;;5041114;28;20429;-81
2022/09/09 11:41:38;;;;;;;12.23;8.03;;;;;;;;;;5041613;28;20918;-81
2022/09/09 11:44:11;;;;;;;7.97;6.82;;;;;;;;;;5040782;28;20494;-82
2022/09/09 11:46:41;;;;;;;9.40;6.20;;;;;;;;;;5042382;28;20487;-81
2022/09/09 11:49:26;;;;;;;6.72;6.10;;;;;;;;;;5045061;28;20441;-82
2022/09/09 11:51:54;;;;;;;7.63;5.70;;;;;;;;;;5045886;28;20462;-82
2022/09/09 11:54:29;;;;;;;6.85;5.32;;;;;;;;;;5045956;28;20922;-81
2022/09/09 11:56:56;;;;;;;7.25;5.50;;;;;;;;;;5044189;28;20880;-81
2022/09/09 11:59:24;;;;;;;8.45;4.88;;;;;;;;;;5045807;28;20436;-82
2022/09/09 12:01:56;;;;;;;8.05;5.70;;;;;;;;;;5045834;28;20461;-81
2022/09/09 12:04:29;;;;;;;7.55;5.03;;;;;;;;;;5046622;28;20446;-82
2022/09/09 12:06:57;;;;;;;8.70;5.13;;;;;;;;;;5047677;28;20788;-83
2022/09/09 12:09:26;;;;;;;8.93;5.20;;;;;;;;;;5046807;28;20441;-81
2022/09/09 12:11:52;;;;;;;15.45;5.45;;;;;;;;;;5045002;28;20522;-81
2022/09/09 12:14:21;;;;;;;10.80;6.30;;;;;;;;;;5046321;28;20427;-81
2022/09/09 12:16:49;;;;;;;7.63;5.70;;;;;;;;;;5046336;28;20513;-81
2022/09/09 12:19:20;;;;;;;8.60;6.22;;;;;;;;;;5047818;28;20421;-81
2022/09/09 12:21:50;;;;;;;10.10;6.60;;;;;;;;;;5045734;28;20423;-81
2022/09/09 12:24:21;;;;;;;7.28;6.57;;;;;;;;;;5045431;28;20437;-82
2022/09/09 12:26:53;;;;;;;9.75;6.45;;;;;;;;;;5044600;28;20580;-82
2022/09/09 12:29:24;;;;;;;9.80;6.53;;;;;;;;;;5044511;28;20569;-81
2022/09/09 12:31:56;;;;;;;8.80;6.30;;;;;;;;;;5046016;28;20436;-80
2022/09/09 12:34:29;;;;;;;9.27;6.70;;;;;;;;;;5046099;28;20465;-81
2022/09/09 12:36:59;;;;;;;11.25;6.45;;;;;;;;;;5045284;28;20843;-81
2022/09/09 12:39:29;;;;;;;9.02;6.80;;;;;;;;;;5046464;28;20448;-82
2022/09/09 12:41:57;;;;;;;8.15;6.60;;;;;;;;;;5045626;28;20422;-81
2022/09/09 12:44:24;;;;;;;8.65;6.90;;;;;;;;;;5044464;28;20501;-84
2022/09/09 12:46:51;;;;;;;8.90;7.53;;;;;;;;;;5045038;28;20425;-81
2022/09/09 12:49:27;;;;;;;11.18;6.70;;;;;;;;;;5044648;28;20438;-82
2022/09/09 12:51:54;;;;;;;8.88;5.80;;;;;;;;;;5046056;28;20437;-82
2022/09/09 12:54:20;;;;;;;9.30;6.40;;;;;;;;;;5043396;28;20444;-82
2022/09/09 12:56:48;;;;;;;7.90;4.50;;;;;;;;;;5045531;28;20436;-82
2022/09/09 12:59:22;;;;;;;5.60;4.57;;;;;;;;;;5045713;28;20429;-81
2022/09/09 13:01:56;;;;;;;7.35;5.18;;;;;;;;;;5044810;28;20421;-82
2022/09/09 13:04:23;;;;;;;5.68;3.80;;;;;;;;;;5044828;28;20846;-81
2022/09/09 13:06:52;;;;;;;5.80;3.70;;;;;;;;;;5045547;28;20419;-83
2022/09/09 13:09:18;;;;;;;5.20;3.30;;;;;;;;;;5046696;28;21036;-82
2022/09/09 13:11:47;;;;;;;4.18;2.83;;;;;;;;;;5045550;28;20506;-81
2022/09/09 13:14:19;;;;;;;5.78;3.25;;;;;;;;;;5044913;28;20438;-82
2022/09/09 13:16:55;;;;;;;9.55;3.65;;;;;;;;;;5044261;28;20413;-81
2022/09/09 13:19:22;;;;;;;9.07;4.93;;;;;;;;;;5044531;28;20913;-80
2022/09/09 13:21:48;;;;;;;9.35;5.47;;;;;;;;;;5041431;28;20430;-80
2022/09/09 13:24:31;;;;;;;10.55;6.05;;;;;;;;;;5043055;28;20449;-80
2022/09/09 13:26:58;;;;;;;13.68;8.50;;;;;;;;;;5042826;28;20930;-82
2022/09/09 13:29:25;;;;;;;18.25;9.07;;;;;;;;;;5041978;28;20433;-80
2022/09/09 13:31:53;;;;;;;14.80;9.60;;;;;;;;;;5042605;28;20920;-81
2022/09/09 13:34:29;;;;;;;11.47;5.80;;;;;;;;;;5042436;28;20442;-81
2022/09/09 13:36:58;;;;;;;8.77;5.60;;;;;;;;;;5043239;28;20936;-80
2022/09/09 13:39:25;;;;;;;7.10;4.73;;;;;;;;;;5043786;28;20430;-81
2022/09/09 13:41:54;;;;;;;5.50;3.20;;;;;;;;;;5044213;28;20433;-80
2022/09/09 13:44:23;;;;;;;7.93;3.97;;;;;;;;;;5043040;28;20437;-80
2022/09/09 13:47:00;;;;;;;6.20;4.03;;;;;;;;;;5044499;28;20493;-80
2022/09/09 13:49:29;;;;;;;5.18;4.00;;;;;;;;;;5043604;28;20433;-81
2022/09/09 13:52:03;;;;;;;6.63;4.10;;;;;;;;;;5043568;28;20957;-81
2022/09/09 13:54:31;;;;;;;8.13;4.60;;;;;;;;;;5044509;28;20428;-81
2022/09/09 13:56:58;;;;;;;5.38;4.00;;;;;;;;;;5044273;28;21103;-81
2022/09/09 13:59:25;;;;;;;6.30;4.30;;;;;;;;;;5044527;28;20512;-80
2022/09/09 14:01:52;;;;;;;7.68;5.10;;;;;;;;;;5043762;28;20425;-82
2022/09/09 14:04:20;;;;;;;7.60;5.10;;;;;;;;;;5044136;28;20425;-80
2022/09/09 14:06:47;;;;;;;8.20;5.60;;;;;;;;;;5043269;28;20419;-80
2022/09/09 14:09:14;;;;;;;7.43;5.65;;;;;;;;;;5043174;28;20423;-80
2022/09/09 14:11:41;;;;;;;8.00;6.05;;;;;;;;;;5040719;28;20418;-80
2022/09/09 14:14:09;;;;;;;8.48;6.07;;;;;;;;;;5042425;28;20425;-81
2022/09/09 14:16:36;;;;;;;8.00;5.80;;;;;;;;;;5041084;28;20442;-82
2022/09/09 14:19:02;;;;;;;11.15;6.43;;;;;;;;;;5041876;28;20439;-82
2022/09/09 14:21:29;;;;;;;11.47;7.20;;;;;;;;;;5042340;28;20445;-80
2022/09/09 14:23:57;;;;;;;9.63;7.38;;;;;;;;;;5042728;28;20929;-80
2022/09/09 14:26:24;;;;;;;9.95;8.00;;;;;;;;;;5043371;28;20510;-81
2022/09/09 14:28:51;;;;;;;10.00;8.05;;;;;;;;;;5042936;28;20422;-81
2022/09/09 14:31:19;;;;;;;12.10;8.98;;;;;;;;;;5041520;28;20529;-81
2022/09/09 14:33:46;;;;;;;10.55;8.48;;;;;;;;;;5041215;28;20440;-80
2022/09/09 14:36:12;;;;;;;12.27;10.07;;;;;;;;;;5043171;28;20435;-80
2022/09/09 14:38:39;;;;;;;13.77;10.15;;;;;;;;;;5043379;28;20431;-80